Time,TemperatureF,DewpointF,PressureIn,WindDirection,WindDirectionDegrees,WindSpeedMPH,WindSpeedGustMPH,Humidity,HourlyPrecipIn,Conditions,Clouds,dailyrainin,SolarRadiationWatts/m^2,SoftwareType,DateUTC
2013-02-22 00:00:00,31.4,24.7,30.11,North,5,6.0,8.0,76,0.00,,,0.00,0,Wunderground v.1.15,2013-02-22 05:00:00,
2013-02-22 00:10:00,31.5,24.8,30.12,NNE,15,7.0,7.0,76,0.00,,,0.00,0,Wunderground v.1.15,2013-02-22 05:10:00,
2013-02-22 00:20:00,31.6,24.9,30.12,NE,44,7.0,7.0,76,0.00,,,0.00,0,Wunderground v.1.15,2013-02-22 05:20:00,
2013-02-22 00:30:00,31.7,25.0,30.13,NE,39,7.0,7.0,76,0.00,,,0.00,0,Wunderground v.1.15,2013-02-22 05:30:00,
2013-02-22 00:40:00,31.7,24.4,30.13,North,360,8.0,8.0,74,0.00,,,0.00,0,Wunderground v.1.15,2013-02-22 05:40:00,
2013-02-22 00:50:00,31.8,24.1,30.14,NNW,339,8.0,8.0,73,0.00,,,0.00,0,Wunderground v.1.15,2013-02-22 05:50:00,
2013-02-22 01:00:00,31.8,24.5,30.15,North,350,7.0,7.0,74,0.00,,,0.00,0,Wunderground v.1.15,2013-02-22 06:00:00,
2013-02-22 01:10:00,31.7,24.4,30.15,NNE,27,6.0,6.0,74,0.00,,,0.00,0,Wunderground v.1.15,2013-02-22 06:10:00,
2013-02-22 01:20:00,31.5,24.5,30.16,NNE,26,5.0,5.0,75,0.00,,,0.00,0,Wunderground v.1.15,2013-02-22 06:20:00,
2013-02-22 01:30:00,31.5,24.8,30.17,ESE,107,3.0,3.0,76,0.00,,,0.00,0,Wunderground v.1.15,2013-02-22 06:30:00,
2013-02-22 01:40:00,31.5,24.2,30.18,NNE,24,4.0,18.0,74,0.00,,,0.00,0,Wunderground v.1.15,2013-02-22 06:40:00,
2013-02-22 01:50:00,31.6,24.3,30.19,NE,49,4.0,18.0,74,0.00,,,0.00,0,Wunderground v.1.15,2013-02-22 06:50:00,
2013-02-22 02:00:00,31.5,24.5,30.18,ESE,109,4.0,4.0,75,0.00,,,0.00,0,Wunderground v.1.15,2013-02-22 07:00:00,
2013-02-22 02:10:00,31.3,24.0,30.19,NNE,26,4.0,4.0,74,0.00,,,0.00,0,Wunderground v.1.15,2013-02-22 07:10:00,
2013-02-22 02:20:00,31.2,24.2,30.19,East,86,4.0,4.0,75,0.00,,,0.00,0,Wunderground v.1.15,2013-02-22 07:20:00,
2013-02-22 02:30:00,31.2,23.9,30.19,North,351,5.0,8.0,74,0.00,,,0.00,0,Wunderground v.1.15,2013-02-22 07:30:00,
2013-02-22 02:40:00,31.1,24.1,30.19,East,81,4.0,11.0,75,0.00,,,0.00,0,Wunderground v.1.15,2013-02-22 07:40:00,
2013-02-22 02:50:00,30.8,23.8,30.20,NNE,32,4.0,4.0,75,0.00,,,0.00,0,Wunderground v.1.15,2013-02-22 07:50:00,
2013-02-22 03:00:00,30.6,23.6,30.19,NE,44,6.0,6.0,75,0.00,,,0.00,0,Wunderground v.1.15,2013-02-22 08:00:00,
2013-02-22 03:10:00,30.4,23.4,30.20,NNE,20,5.0,5.0,75,0.00,,,0.00,0,Wunderground v.1.15,2013-02-22 08:10:00,
2013-02-22 03:20:00,30.2,23.2,30.21,NE,38,5.0,6.0,75,0.00,,,0.00,0,Wunderground v.1.15,2013-02-22 08:20:00,
2013-02-22 03:30:00,30.1,23.1,30.21,ENE,61,6.0,6.0,75,0.00,,,0.00,0,Wunderground v.1.15,2013-02-22 08:30:00,
2013-02-22 03:40:00,30.0,23.4,30.21,NE,45,6.0,13.0,76,0.00,,,0.00,0,Wunderground v.1.15,2013-02-22 08:40:00,
2013-02-22 03:50:00,30.1,23.1,30.22,ESE,105,7.0,13.0,75,0.00,,,0.00,0,Wunderground v.1.15,2013-02-22 08:50:00,
2013-02-22 04:00:00,30.0,23.0,30.23,NE,36,5.0,9.0,75,0.00,,,0.00,0,Wunderground v.1.15,2013-02-22 09:00:00,
2013-02-22 04:10:00,29.9,22.9,30.24,North,355,6.0,6.0,75,0.00,,,0.00,0,Wunderground v.1.15,2013-02-22 09:10:00,
2013-02-22 04:20:00,29.7,22.7,30.23,NE,39,5.0,5.0,75,0.00,,,0.00,0,Wunderground v.1.15,2013-02-22 09:20:00,
2013-02-22 04:30:00,29.6,22.6,30.24,NE,52,6.0,6.0,75,0.00,,,0.00,0,Wunderground v.1.15,2013-02-22 09:30:00,
2013-02-22 04:40:00,29.6,22.6,30.24,NNE,33,6.0,20.0,75,0.00,,,0.00,0,Wunderground v.1.15,2013-02-22 09:40:00,
2013-02-22 04:50:00,29.3,22.4,30.25,NE,41,5.0,5.0,75,0.00,,,0.00,0,Wunderground v.1.15,2013-02-22 09:50:00,
2013-02-22 05:00:00,29.2,21.9,30.25,NNE,29,5.0,6.0,74,0.00,,,0.00,0,Wunderground v.1.15,2013-02-22 10:00:00,
2013-02-22 05:10:00,29.0,21.7,30.25,North,355,5.0,6.0,74,0.00,,,0.00,0,Wunderground v.1.15,2013-02-22 10:10:00,
2013-02-22 05:20:00,28.8,21.6,30.26,North,355,5.0,5.0,74,0.00,,,0.00,0,Wunderground v.1.15,2013-02-22 10:20:00,
2013-02-22 05:30:00,28.7,21.5,30.26,NNE,13,5.0,5.0,74,0.00,,,0.00,0,Wunderground v.1.15,2013-02-22 10:30:00,
2013-02-22 05:40:00,28.7,21.5,30.26,NNE,30,6.0,16.0,74,0.00,,,0.00,0,Wunderground v.1.15,2013-02-22 10:40:00,
2013-02-22 05:50:00,28.5,21.3,30.26,NE,34,4.0,16.0,74,0.00,,,0.00,0,Wunderground v.1.15,2013-02-22 10:50:00,
2013-02-22 06:00:00,28.4,21.2,30.27,ENE,63,5.0,6.0,74,0.00,,,0.00,0,Wunderground v.1.15,2013-02-22 11:00:00,
2013-02-22 06:10:00,28.4,21.2,30.27,NNE,19,6.0,6.0,74,0.00,,,0.00,0,Wunderground v.1.15,2013-02-22 11:10:00,
2013-02-22 06:20:00,28.3,21.1,30.28,NNE,33,5.0,6.0,74,0.00,,,0.00,5,Wunderground v.1.15,2013-02-22 11:20:00,
2013-02-22 06:30:00,28.1,20.9,30.29,North,11,5.0,5.0,74,0.00,,,0.00,7,Wunderground v.1.15,2013-02-22 11:30:00,
2013-02-22 06:40:00,28.0,20.8,30.29,NNE,27,4.0,4.0,74,0.00,,,0.00,11,Wunderground v.1.15,2013-02-22 11:40:00,
2013-02-22 06:50:00,28.0,20.8,30.30,NNE,18,4.0,4.0,74,0.00,,,0.00,12,Wunderground v.1.15,2013-02-22 11:50:00,
2013-02-22 07:00:00,28.0,20.8,30.31,NE,40,5.0,5.0,74,0.00,,,0.00,16,Wunderground v.1.15,2013-02-22 12:00:00,
2013-02-22 07:10:00,28.1,20.9,30.31,NNE,28,5.0,6.0,74,0.00,,,0.00,18,Wunderground v.1.15,2013-02-22 12:10:00,
2013-02-22 07:20:00,28.3,21.1,30.32,North,5,5.0,5.0,74,0.00,,,0.00,19,Wunderground v.1.15,2013-02-22 12:20:00,
2013-02-22 07:30:00,28.5,20.9,30.32,NNE,25,5.0,6.0,73,0.00,,,0.00,21,Wunderground v.1.15,2013-02-22 12:30:00,
2013-02-22 07:40:00,28.9,21.0,30.33,NNE,24,5.0,5.0,72,0.00,,,0.00,21,Wunderground v.1.15,2013-02-22 12:40:00,
2013-02-22 07:50:00,29.2,21.3,30.33,ENE,63,5.0,11.0,72,0.00,,,0.00,23,Wunderground v.1.15,2013-02-22 12:50:00,
2013-02-22 08:00:00,29.4,20.8,30.34,NNE,12,5.0,5.0,70,0.00,,,0.00,25,Wunderground v.1.15,2013-02-22 13:00:00,
2013-02-22 08:10:00,29.8,21.2,30.35,NNE,30,4.0,4.0,70,0.00,,,0.00,26,Wunderground v.1.15,2013-02-22 13:10:00,
2013-02-22 08:20:00,30.0,20.7,30.36,NE,51,6.0,6.0,68,0.00,,,0.00,26,Wunderground v.1.15,2013-02-22 13:20:00,
2013-02-22 08:30:00,30.2,20.9,30.35,NNE,32,6.0,10.0,68,0.00,,,0.00,28,Wunderground v.1.15,2013-02-22 13:30:00,
2013-02-22 08:40:00,30.5,20.8,30.36,North,10,6.0,12.0,67,0.00,,,0.00,47,Wunderground v.1.15,2013-02-22 13:40:00,
2013-02-22 08:50:00,30.8,20.8,30.36,NNE,22,7.0,7.0,66,0.00,,,0.00,33,Wunderground v.1.15,2013-02-22 13:50:00,
2013-02-22 09:00:00,31.1,21.1,30.35,North,360,6.0,6.0,66,0.00,,,0.00,69,Wunderground v.1.15,2013-02-22 14:00:00,
2013-02-22 09:10:00,31.4,20.6,30.35,North,355,6.0,6.0,64,0.00,,,0.00,30,Wunderground v.1.15,2013-02-22 14:10:00,
2013-02-22 09:20:00,31.5,20.7,30.35,NE,51,7.0,7.0,64,0.00,,,0.00,118,Wunderground v.1.15,2013-02-22 14:20:00,
2013-02-22 09:30:00,31.7,20.5,30.35,NE,48,6.0,11.0,63,0.00,,,0.00,58,Wunderground v.1.15,2013-02-22 14:30:00,
2013-02-22 09:40:00,32.2,21.0,30.35,North,10,6.0,6.0,63,0.00,,,0.00,139,Wunderground v.1.15,2013-02-22 14:40:00,
2013-02-22 09:50:00,32.7,21.1,30.35,NNE,22,5.0,5.0,62,0.00,,,0.00,33,Wunderground v.1.15,2013-02-22 14:50:00,
2013-02-22 10:00:00,32.9,21.3,30.35,NE,36,4.0,4.0,62,0.00,,,0.00,33,Wunderground v.1.15,2013-02-22 15:00:00,
2013-02-22 10:20:00,33.4,21.0,30.35,NNE,30,5.0,5.0,60,0.00,,,0.00,146,Wunderground v.1.15,2013-02-22 15:20:00,
2013-02-22 10:21:00,33.2,21.2,30.35,NNE,26,5.0,5.0,61,0.00,,,0.00,33,Wunderground v.1.15,2013-02-22 15:21:00,
2013-02-22 10:30:00,33.5,21.1,30.35,NNE,26,5.0,7.0,60,0.00,,,0.00,37,Wunderground v.1.15,2013-02-22 15:30:00,
2013-02-22 10:51:00,33.7,21.3,30.36,NW,318,4.0,14.0,60,0.00,,,0.00,251,Wunderground v.1.15,2013-02-22 15:51:00,
2013-02-22 11:00:00,33.8,21.4,30.35,NE,49,4.0,14.0,60,0.00,,,0.00,47,Wunderground v.1.15,2013-02-22 16:00:00,
2013-02-22 11:10:00,34.5,21.2,30.34,NE,42,3.0,3.0,58,0.00,,,0.00,125,Wunderground v.1.15,2013-02-22 16:10:00,
2013-02-22 11:11:00,33.8,22.5,30.34,ENE,69,5.0,5.0,63,0.00,,,0.00,39,Wunderground v.1.15,2013-02-22 16:11:00,
2013-02-22 11:30:00,35.2,21.1,30.33,NNE,22,5.0,6.0,56,0.00,,,0.00,330,Wunderground v.1.15,2013-02-22 16:30:00,
2013-02-22 11:31:00,35.1,21.4,30.34,NE,38,3.0,3.0,57,0.00,,,0.00,42,Wunderground v.1.15,2013-02-22 16:31:00,
2013-02-22 11:50:00,35.6,21.9,30.33,NNE,15,3.0,12.0,57,0.00,,,0.00,49,Wunderground v.1.15,2013-02-22 16:50:00,
2013-02-22 11:51:00,35.3,20.7,30.33,NE,38,4.0,4.0,55,0.00,,,0.00,54,Wunderground v.1.15,2013-02-22 16:51:00,
2013-02-22 12:00:00,35.9,20.9,30.33,North,355,5.0,10.0,54,0.00,,,0.00,613,Wunderground v.1.15,2013-02-22 17:00:00,
2013-02-22 12:20:00,36.2,20.7,30.32,NE,51,3.0,5.0,53,0.00,,,0.00,510,Wunderground v.1.15,2013-02-22 17:20:00,
2013-02-22 12:30:00,36.4,20.0,30.32,NE,34,5.0,5.0,51,0.00,,,0.00,533,Wunderground v.1.15,2013-02-22 17:30:00,
2013-02-22 12:40:00,36.2,20.2,30.32,NE,42,5.0,14.0,52,0.00,,,0.00,621,Wunderground v.1.15,2013-02-22 17:40:00,
2013-02-22 12:50:00,36.5,20.5,30.32,NNE,29,5.0,14.0,52,0.00,,,0.00,531,Wunderground v.1.15,2013-02-22 17:50:00,
2013-02-22 13:00:00,36.9,20.4,30.32,NNE,20,4.0,4.0,51,0.00,,,0.00,483,Wunderground v.1.15,2013-02-22 18:00:00,
2013-02-22 13:20:00,37.0,20.1,30.32,NNE,33,4.0,4.0,50,0.00,,,0.00,195,Wunderground v.1.15,2013-02-22 18:20:00,
2013-02-22 13:21:00,37.3,20.3,30.32,NNW,330,2.0,2.0,50,0.00,,,0.00,394,Wunderground v.1.15,2013-02-22 18:21:00,
2013-02-22 13:30:00,36.9,20.4,30.31,NE,49,2.0,2.0,51,0.00,,,0.00,223,Wunderground v.1.15,2013-02-22 18:30:00,
2013-02-22 13:50:00,37.0,20.5,30.31,NE,56,2.0,14.0,51,0.00,,,0.00,295,Wunderground v.1.15,2013-02-22 18:50:00,
2013-02-22 13:51:00,36.8,19.9,30.31,NE,39,3.0,3.0,50,0.00,,,0.00,163,Wunderground v.1.15,2013-02-22 18:51:00,
2013-02-22 14:00:00,37.8,20.8,30.32,ENE,59,2.0,2.0,50,0.00,,,0.00,612,Wunderground v.1.15,2013-02-22 19:00:00,
2013-02-22 14:10:00,38.3,20.3,30.31,ENE,59,3.0,3.0,48,0.00,,,0.00,380,Wunderground v.1.15,2013-02-22 19:10:00,
2013-02-22 14:30:00,38.3,19.8,30.31,NE,34,2.0,2.0,47,0.00,,,0.00,301,Wunderground v.1.15,2013-02-22 19:30:00,
2013-02-22 14:31:00,38.6,20.6,30.31,NE,36,2.0,2.0,48,0.00,,,0.00,336,Wunderground v.1.15,2013-02-22 19:31:00,
2013-02-22 14:51:00,38.3,19.8,30.31,North,351,2.0,10.0,47,0.00,,,0.00,434,Wunderground v.1.15,2013-02-22 19:51:00,
2013-02-22 15:00:00,38.6,20.6,30.31,NE,43,2.0,2.0,48,0.00,,,0.00,220,Wunderground v.1.15,2013-02-22 20:00:00,
2013-02-22 15:01:00,39.0,20.5,30.31,NE,46,2.0,10.0,47,0.00,,,0.00,327,Wunderground v.1.15,2013-02-22 20:01:00,
2013-02-22 15:21:00,38.5,20.5,30.32,NNE,19,2.0,3.0,48,0.00,,,0.00,181,Wunderground v.1.15,2013-02-22 20:21:00,
2013-02-22 15:30:00,38.2,19.7,30.31,NE,40,2.0,2.0,47,0.00,,,0.00,162,Wunderground v.1.15,2013-02-22 20:30:00,
2013-02-22 15:41:00,37.9,20.9,30.31,NE,42,2.0,2.0,50,0.00,,,0.00,91,Wunderground v.1.15,2013-02-22 20:41:00,
2013-02-22 15:50:00,37.0,19.6,30.31,NNE,22,0.0,7.0,49,0.00,,,0.00,63,Wunderground v.1.15,2013-02-22 20:50:00,
2013-02-22 15:51:00,37.4,20.0,30.31,NNE,22,1.0,1.0,49,0.00,,,0.00,67,Wunderground v.1.15,2013-02-22 20:51:00,
2013-02-22 16:00:00,37.2,21.2,30.31,NNE,22,0.0,0.0,52,0.00,,,0.00,60,Wunderground v.1.15,2013-02-22 21:00:00,
2013-02-22 16:20:00,36.5,23.5,30.32,SSW,192,0.0,0.0,59,0.00,,,0.00,54,Wunderground v.1.15,2013-02-22 21:20:00,
2013-02-22 16:21:00,37.2,20.2,30.32,NNE,22,0.0,0.0,50,0.00,,,0.00,62,Wunderground v.1.15,2013-02-22 21:21:00,
2013-02-22 16:41:00,35.7,24.3,30.32,SSW,192,0.0,0.0,63,0.00,,,0.00,35,Wunderground v.1.15,2013-02-22 21:41:00,
2013-02-22 16:51:00,35.1,25.2,30.32,SSW,192,0.0,6.0,67,0.00,,,0.00,23,Wunderground v.1.15,2013-02-22 21:51:00,
2013-02-22 17:00:00,34.5,25.4,30.32,SSW,192,0.0,6.0,69,0.00,,,0.00,16,Wunderground v.1.15,2013-02-22 22:00:00,
2013-02-22 17:21:00,33.4,24.0,30.32,SSW,192,0.0,0.0,68,0.00,,,0.00,0,Wunderground v.1.15,2013-02-22 22:21:00,
2013-02-22 17:31:00,32.6,24.6,30.32,SSW,192,0.0,0.0,72,0.00,,,0.00,0,Wunderground v.1.15,2013-02-22 22:31:00,
2013-02-22 17:40:00,32.0,24.6,30.33,SSW,192,0.0,0.0,74,0.00,,,0.00,0,Wunderground v.1.15,2013-02-22 22:40:00,
2013-02-22 17:51:00,31.4,23.7,30.32,SSW,192,0.0,4.0,73,0.00,,,0.00,0,Wunderground v.1.15,2013-02-22 22:51:00,
2013-02-22 18:01:00,30.9,23.6,30.32,SSW,192,0.0,4.0,74,0.00,,,0.00,0,Wunderground v.1.15,2013-02-22 23:01:00,
2013-02-22 18:11:00,30.5,23.8,30.32,SSW,192,0.0,0.0,76,0.00,,,0.00,0,Wunderground v.1.15,2013-02-22 23:11:00,
2013-02-22 18:20:00,30.2,23.5,30.32,SSW,192,0.0,0.0,76,0.00,,,0.00,0,Wunderground v.1.15,2013-02-22 23:20:00,
2013-02-22 18:31:00,30.0,24.0,30.32,SSW,192,0.0,0.0,78,0.00,,,0.00,0,Wunderground v.1.15,2013-02-22 23:31:00,
2013-02-22 18:41:00,29.7,23.7,30.32,SSW,192,0.0,0.0,78,0.00,,,0.00,0,Wunderground v.1.15,2013-02-22 23:41:00,
2013-02-22 18:51:00,29.5,23.5,30.32,SSW,192,0.0,1.0,78,0.00,,,0.00,0,Wunderground v.1.15,2013-02-22 23:51:00,
2013-02-22 19:01:00,29.4,23.7,30.33,SSW,192,0.0,1.0,79,0.00,,,0.00,0,Wunderground v.1.15,2013-02-23 00:01:00,
2013-02-22 19:11:00,29.1,23.7,30.33,SSW,192,0.0,0.0,80,0.00,,,0.00,0,Wunderground v.1.15,2013-02-23 00:11:00,
2013-02-22 19:21:00,28.8,23.7,30.33,SSW,192,0.0,0.0,81,0.00,,,0.00,0,Wunderground v.1.15,2013-02-23 00:21:00,
2013-02-22 19:31:00,28.3,23.8,30.33,SSW,192,0.0,0.0,83,0.00,,,0.00,0,Wunderground v.1.15,2013-02-23 00:31:00,
2013-02-22 19:41:00,28.1,23.6,30.33,SSW,192,0.0,0.0,83,0.00,,,0.00,0,Wunderground v.1.15,2013-02-23 00:41:00,
2013-02-22 19:50:00,27.9,23.4,30.33,SSW,192,0.0,2.0,83,0.00,,,0.00,0,Wunderground v.1.15,2013-02-23 00:50:00,
2013-02-22 20:01:00,27.8,23.6,30.34,SSW,192,0.0,2.0,84,0.00,,,0.00,0,Wunderground v.1.15,2013-02-23 01:01:00,
2013-02-22 20:11:00,27.7,23.5,30.33,SSW,192,0.0,0.0,84,0.00,,,0.00,0,Wunderground v.1.15,2013-02-23 01:11:00,
2013-02-22 20:21:00,27.6,23.7,30.33,SSW,192,0.0,0.0,85,0.00,,,0.00,0,Wunderground v.1.15,2013-02-23 01:21:00,
2013-02-22 20:31:00,27.6,24.0,30.34,SSW,192,0.0,0.0,86,0.00,,,0.00,0,Wunderground v.1.15,2013-02-23 01:31:00,
2013-02-22 20:41:00,27.4,23.8,30.34,SSW,192,0.0,0.0,86,0.00,,,0.00,0,Wunderground v.1.15,2013-02-23 01:41:00,
2013-02-22 20:51:00,27.2,23.6,30.34,SSW,192,0.0,0.0,86,0.00,,,0.00,0,Wunderground v.1.15,2013-02-23 01:51:00,
2013-02-22 21:01:00,27.1,23.5,30.35,SSW,192,0.0,0.0,86,0.00,,,0.00,0,Wunderground v.1.15,2013-02-23 02:01:00,
2013-02-22 21:11:00,27.0,23.4,30.35,SSW,192,0.0,0.0,86,0.00,,,0.00,0,Wunderground v.1.15,2013-02-23 02:11:00,
2013-02-22 21:21:00,27.0,23.4,30.35,SSW,192,0.0,0.0,86,0.00,,,0.00,0,Wunderground v.1.15,2013-02-23 02:21:00,
2013-02-22 21:30:00,27.0,23.4,30.35,SSW,192,0.0,0.0,86,0.00,,,0.00,0,Wunderground v.1.15,2013-02-23 02:30:00,
2013-02-22 21:41:00,26.9,23.5,30.34,SSW,192,0.0,0.0,87,0.00,,,0.00,0,Wunderground v.1.15,2013-02-23 02:41:00,
2013-02-22 21:51:00,26.9,23.3,30.34,SSW,192,0.0,0.0,86,0.00,,,0.00,0,Wunderground v.1.15,2013-02-23 02:51:00,
2013-02-22 22:00:00,26.9,23.3,30.33,South,173,0.0,0.0,86,0.00,,,0.00,0,Wunderground v.1.15,2013-02-23 03:00:00,
2013-02-22 22:11:00,26.9,23.0,30.34,South,173,0.0,0.0,85,0.00,,,0.00,0,Wunderground v.1.15,2013-02-23 03:11:00,
2013-02-22 22:21:00,26.7,22.5,30.34,South,173,0.0,0.0,84,0.00,,,0.00,0,Wunderground v.1.15,2013-02-23 03:21:00,
2013-02-22 22:31:00,26.6,22.7,30.33,South,173,0.0,0.0,85,0.00,,,0.00,0,Wunderground v.1.15,2013-02-23 03:31:00,
2013-02-22 22:40:00,26.6,23.0,30.33,South,173,0.0,0.0,86,0.00,,,0.00,0,Wunderground v.1.15,2013-02-23 03:40:00,
2013-02-22 22:51:00,26.5,22.9,30.33,South,173,0.0,1.0,86,0.00,,,0.00,0,Wunderground v.1.15,2013-02-23 03:51:00,
2013-02-22 23:00:00,26.5,22.6,30.33,South,173,0.0,1.0,85,0.00,,,0.00,0,Wunderground v.1.15,2013-02-23 04:00:00,
2013-02-22 23:11:00,26.6,22.4,30.33,South,173,0.0,0.0,84,0.00,,,0.00,0,Wunderground v.1.15,2013-02-23 04:11:00,
2013-02-22 23:21:00,26.7,22.2,30.34,South,173,0.0,0.0,83,0.00,,,0.00,0,Wunderground v.1.15,2013-02-23 04:21:00,
2013-02-22 23:31:00,26.9,22.1,30.33,South,173,0.0,0.0,82,0.00,,,0.00,0,Wunderground v.1.15,2013-02-23 04:31:00,
2013-02-22 23:40:00,27.0,21.9,30.34,South,173,0.0,0.0,81,0.00,,,0.00,0,Wunderground v.1.15,2013-02-23 04:40:00,
2013-02-22 23:50:00,27.4,22.3,30.33,South,173,0.0,0.0,81,0.00,,,0.00,0,Wunderground v.1.15,2013-02-23 04:50:00,
2013-02-22 23:51:00,27.2,21.8,30.33,South,173,0.0,0.0,80,0.00,,,0.00,0,Wunderground v.1.15,2013-02-23 04:51:00,